createdAt,value
2023-05-14T00:01:15.437Z,5.60
2023-05-14T00:03:42.076Z,5.30
2023-05-14T00:06:10.669Z,5.32
2023-05-14T00:08:37.195Z,5.45
2023-05-14T00:11:03.695Z,5.35
2023-05-14T00:13:30.220Z,5.00
2023-05-14T00:15:56.866Z,5.10
2023-05-14T00:18:23.363Z,5.38
2023-05-14T00:20:54.586Z,5.55
2023-05-14T00:23:21.709Z,5.18
2023-05-14T00:25:48.275Z,5.13
2023-05-14T00:28:14.734Z,5.30
2023-05-14T00:30:41.343Z,5.20
2023-05-14T00:33:08.681Z,6.03
2023-05-14T00:35:35.898Z,5.32
2023-05-14T00:38:03.249Z,5.18
2023-05-14T00:40:29.797Z,5.13
2023-05-14T00:42:56.620Z,5.03
2023-05-14T00:45:23.183Z,5.00
2023-05-14T00:47:50.280Z,5.45
2023-05-14T00:50:17.465Z,4.85
2023-05-14T00:52:43.987Z,5.43
2023-05-14T00:55:12.921Z,5.10
2023-05-14T00:57:39.582Z,5.00
2023-05-14T01:00:06.490Z,4.90
2023-05-14T01:02:33.027Z,5.05
2023-05-14T01:04:59.625Z,4.60
2023-05-14T01:07:33.548Z,5.00
2023-05-14T01:10:08.433Z,4.78
2023-05-14T01:12:57.852Z,5.25
2023-05-14T01:15:26.508Z,5.30
2023-05-14T01:18:22.497Z,4.57
2023-05-14T01:20:51.498Z,5.00
2023-05-14T01:23:18.033Z,4.80
2023-05-14T01:25:44.553Z,4.82
2023-05-14T01:28:23.582Z,4.80
2023-05-14T01:30:56.148Z,5.80
2023-05-14T01:33:24.946Z,4.90
2023-05-14T01:35:53.706Z,5.07
2023-05-14T01:38:21.719Z,5.47
2023-05-14T01:40:49.022Z,5.03
2023-05-14T01:43:16.071Z,4.60
2023-05-14T01:45:43.699Z,5.30
2023-05-14T01:48:10.353Z,4.97
2023-05-14T01:50:36.937Z,5.50
2023-05-14T01:53:03.441Z,4.68
2023-05-14T01:55:29.970Z,5.30
2023-05-14T01:57:56.573Z,4.97
2023-05-14T02:00:25.305Z,5.03
2023-05-14T02:02:52.090Z,4.88
2023-05-14T02:05:18.950Z,4.90
2023-05-14T02:07:46.088Z,4.68
2023-05-14T02:10:13.150Z,5.13
2023-05-14T02:12:39.717Z,5.20
2023-05-14T02:15:11.042Z,5.15
2023-05-14T02:17:43.638Z,5.18
2023-05-14T02:20:11.183Z,5.53
2023-05-14T02:22:41.219Z,5.07
2023-05-14T02:25:08.473Z,5.20
2023-05-14T02:27:37.081Z,5.55
2023-05-14T02:30:04.534Z,5.57
2023-05-14T02:32:31.185Z,5.38
2023-05-14T02:34:57.693Z,4.80
2023-05-14T02:37:24.280Z,5.60
2023-05-14T02:39:51.598Z,5.25
2023-05-14T02:42:19.466Z,5.50
2023-05-14T02:44:46.505Z,5.20
2023-05-14T02:47:13.101Z,5.05
2023-05-14T02:49:40.324Z,5.07
2023-05-14T02:52:06.984Z,5.28
2023-05-14T02:54:33.509Z,5.40
2023-05-14T02:57:00.161Z,5.78
2023-05-14T02:59:26.839Z,5.57
2023-05-14T03:01:53.933Z,5.80
2023-05-14T03:04:20.859Z,5.32
2023-05-14T03:06:47.437Z,5.97
2023-05-14T03:09:14.380Z,5.70
2023-05-14T03:11:40.978Z,6.53
2023-05-14T03:14:07.445Z,5.82
2023-05-14T03:16:34.020Z,5.35
2023-05-14T03:19:00.655Z,5.75
2023-05-14T03:21:27.330Z,5.45
2023-05-14T03:23:53.916Z,5.88
2023-05-14T03:26:21.625Z,5.80
2023-05-14T03:28:48.743Z,5.70
2023-05-14T03:31:15.456Z,5.47
2023-05-14T03:33:42.214Z,6.03
2023-05-14T03:36:08.982Z,6.22
2023-05-14T03:38:35.507Z,6.30
2023-05-14T03:41:02.002Z,6.18
2023-05-14T03:43:28.461Z,6.13
2023-05-14T03:45:55.067Z,5.90
2023-05-14T03:48:22.897Z,5.82
2023-05-14T03:50:49.536Z,6.38
2023-05-14T03:53:16.747Z,5.68
2023-05-14T03:55:43.308Z,6.03
2023-05-14T03:58:14.040Z,6.20
2023-05-14T04:00:43.772Z,5.95
2023-05-14T04:03:11.293Z,5.82
2023-05-14T04:05:37.921Z,5.63
2023-05-14T04:08:04.502Z,5.88
2023-05-14T04:10:32.113Z,5.85
2023-05-14T04:12:59.623Z,6.05
2023-05-14T04:15:30.878Z,5.78
2023-05-14T04:17:57.375Z,5.88
2023-05-14T04:20:24.038Z,6.22
2023-05-14T04:22:50.714Z,5.82
2023-05-14T04:25:18.486Z,5.93
2023-05-14T04:27:45.015Z,6.10
2023-05-14T04:30:11.702Z,6.10
2023-05-14T04:32:38.975Z,6.15
2023-05-14T04:35:05.966Z,5.88
2023-05-14T04:37:33.091Z,6.10
2023-05-14T04:39:59.610Z,5.80
2023-05-14T04:42:26.073Z,6.03
2023-05-14T04:44:52.613Z,5.82
2023-05-14T04:47:19.788Z,5.75
2023-05-14T04:49:47.501Z,5.60
2023-05-14T04:52:14.011Z,5.90
2023-05-14T04:54:41.751Z,5.80
2023-05-14T04:57:08.360Z,5.53
2023-05-14T04:59:34.986Z,5.68
2023-05-14T05:02:04.885Z,6.00
2023-05-14T05:04:31.397Z,5.30
2023-05-14T05:06:57.938Z,5.40
2023-05-14T05:09:24.466Z,5.95
2023-05-14T05:11:51.164Z,5.35
2023-05-14T05:14:17.692Z,5.63
2023-05-14T05:16:44.930Z,5.55
2023-05-14T05:19:11.506Z,5.38
2023-05-14T05:21:40.297Z,5.50
2023-05-14T05:24:07.465Z,5.68
2023-05-14T05:26:36.777Z,5.43
2023-05-14T05:29:04.091Z,5.00
2023-05-14T05:31:31.089Z,5.20
2023-05-14T05:33:58.808Z,5.05
2023-05-14T05:36:25.332Z,5.40
2023-05-14T05:38:51.820Z,5.32
2023-05-14T05:41:18.349Z,5.80
2023-05-14T05:43:44.858Z,5.10
2023-05-14T05:46:11.925Z,5.22
2023-05-14T05:48:38.406Z,5.07
2023-05-14T05:51:04.978Z,5.50
2023-05-14T05:53:31.515Z,5.32
2023-05-14T05:55:58.019Z,5.00
2023-05-14T05:58:24.541Z,5.38
2023-05-14T06:00:51.472Z,4.90
2023-05-14T06:03:18.101Z,5.05
2023-05-14T06:05:44.799Z,4.70
2023-05-14T06:08:11.435Z,4.65
2023-05-14T06:10:38.063Z,4.90
2023-05-14T06:13:07.101Z,4.60
2023-05-14T06:15:33.594Z,4.57
2023-05-14T06:18:00.200Z,4.78
2023-05-14T06:20:26.763Z,4.43
2023-05-14T06:22:53.483Z,4.40
2023-05-14T06:25:20.068Z,4.07
2023-05-14T06:27:46.639Z,4.25
2023-05-14T06:30:13.454Z,5.10
2023-05-14T06:32:40.004Z,4.68
2023-05-14T06:35:06.863Z,4.63
2023-05-14T06:37:33.426Z,4.45
2023-05-14T06:40:00.794Z,4.60
2023-05-14T06:42:27.385Z,6.38
2023-05-14T06:44:54.563Z,4.50
2023-05-14T06:47:21.046Z,4.22
2023-05-14T06:49:47.570Z,4.53
2023-05-14T06:52:14.063Z,3.95
2023-05-14T06:54:40.661Z,3.88
2023-05-14T06:57:07.237Z,4.03
2023-05-14T06:59:33.792Z,4.10
2023-05-14T07:02:01.294Z,4.10
2023-05-14T07:04:27.911Z,3.83
2023-05-14T07:06:54.467Z,3.65
2023-05-14T07:09:21.984Z,3.67
2023-05-14T07:11:48.495Z,4.00
2023-05-14T07:14:14.978Z,3.50
2023-05-14T07:16:42.706Z,3.55
2023-05-14T07:19:09.358Z,3.60
2023-05-14T07:21:36.204Z,3.60
2023-05-14T07:24:02.707Z,3.80
2023-05-14T07:26:29.293Z,3.70
2023-05-14T07:28:55.888Z,3.67
2023-05-14T07:31:22.447Z,3.55
2023-05-14T07:33:49.078Z,3.58
2023-05-14T07:36:15.719Z,3.35
2023-05-14T07:38:42.191Z,3.60
2023-05-14T07:41:08.849Z,3.20
2023-05-14T07:43:35.517Z,3.78
2023-05-14T07:46:02.052Z,3.40
2023-05-14T07:48:28.633Z,3.60
2023-05-14T07:50:55.283Z,3.42
2023-05-14T07:53:22.056Z,3.28
2023-05-14T07:55:48.947Z,3.20
2023-05-14T07:58:16.111Z,3.33
2023-05-14T08:00:42.675Z,3.28
2023-05-14T08:03:09.273Z,3.30
2023-05-14T08:05:35.859Z,3.50
2023-05-14T08:08:02.710Z,3.30
2023-05-14T08:10:29.525Z,3.42
2023-05-14T08:12:56.186Z,3.30
2023-05-14T08:15:23.731Z,3.50
2023-05-14T08:17:51.767Z,3.17
2023-05-14T08:20:18.709Z,3.15
2023-05-14T08:22:45.206Z,3.45
2023-05-14T08:25:11.977Z,3.20
2023-05-14T08:27:38.509Z,2.90
2023-05-14T08:30:06.435Z,3.40
2023-05-14T08:32:33.043Z,3.08
2023-05-14T08:34:59.618Z,2.95
2023-05-14T08:37:26.170Z,2.97
2023-05-14T08:39:52.711Z,3.13
2023-05-14T08:42:20.767Z,2.80
2023-05-14T08:44:47.261Z,2.58
2023-05-14T08:47:15.260Z,2.88
2023-05-14T08:49:43.199Z,2.85
2023-05-14T08:52:10.652Z,3.05
2023-05-14T08:54:37.403Z,3.15
2023-05-14T08:57:04.636Z,2.95
2023-05-14T08:59:32.756Z,2.85
2023-05-14T09:02:02.027Z,3.10
2023-05-14T09:04:29.658Z,2.90
2023-05-14T09:06:56.240Z,3.00
2023-05-14T09:09:23.058Z,3.25
2023-05-14T09:11:50.317Z,2.97
2023-05-14T09:14:17.161Z,2.90
2023-05-14T09:16:48.191Z,2.65
2023-05-14T09:19:15.820Z,2.70
2023-05-14T09:21:44.492Z,2.75
2023-05-14T09:24:18.605Z,2.80
2023-05-14T09:26:45.106Z,2.70
2023-05-14T09:29:11.637Z,2.95
2023-05-14T09:31:38.165Z,2.95
2023-05-14T09:34:04.696Z,2.70
2023-05-14T09:36:34.044Z,2.90
2023-05-14T09:39:03.401Z,2.80
2023-05-14T09:41:29.931Z,2.80
2023-05-14T09:43:58.328Z,2.50
2023-05-14T09:46:30.163Z,2.70
2023-05-14T09:48:57.041Z,2.58
2023-05-14T09:51:23.928Z,2.90
2023-05-14T09:53:52.516Z,2.55
2023-05-14T09:56:19.135Z,2.60
2023-05-14T09:58:45.670Z,2.78
2023-05-14T10:01:12.971Z,2.45
2023-05-14T10:03:39.561Z,2.67
2023-05-14T10:06:06.559Z,2.42
2023-05-14T10:08:36.455Z,2.40
2023-05-14T10:11:06.205Z,2.30
2023-05-14T10:13:36.788Z,2.08
2023-05-14T10:16:06.103Z,2.08
2023-05-14T10:18:34.839Z,2.55
2023-05-14T10:21:05.695Z,2.80
2023-05-14T10:23:32.408Z,2.50
2023-05-14T10:25:59.586Z,2.50
2023-05-14T10:28:26.692Z,2.63
2023-05-14T10:30:54.034Z,2.30
2023-05-14T10:33:21.085Z,2.70
2023-05-14T10:35:51.303Z,2.55
2023-05-14T10:38:17.890Z,2.30
2023-05-14T10:40:44.443Z,2.65
2023-05-14T10:43:11.371Z,2.40
2023-05-14T10:45:37.872Z,2.60
2023-05-14T10:48:04.466Z,2.40
2023-05-14T10:50:31.106Z,2.45
2023-05-14T10:52:57.996Z,2.65
2023-05-14T10:55:24.965Z,2.50
2023-05-14T10:57:52.431Z,2.58
2023-05-14T11:00:19.024Z,2.72
2023-05-14T11:02:46.034Z,2.47
2023-05-14T11:05:17.289Z,2.50
2023-05-14T11:07:45.232Z,2.40
2023-05-14T11:10:12.688Z,2.80
2023-05-14T11:12:40.644Z,2.53
2023-05-14T11:15:11.180Z,2.72
2023-05-14T11:17:38.556Z,2.65
2023-05-14T11:20:06.513Z,3.28
2023-05-14T11:22:33.318Z,2.90
2023-05-14T11:24:59.896Z,2.60
2023-05-14T11:27:26.528Z,3.10
2023-05-14T11:29:53.235Z,2.80
2023-05-14T11:32:20.110Z,2.88
2023-05-14T11:34:49.131Z,2.80
2023-05-14T11:37:16.406Z,2.80
2023-05-14T11:39:49.869Z,2.83
2023-05-14T11:42:18.757Z,2.60
2023-05-14T11:44:49.400Z,2.97
2023-05-14T11:47:17.417Z,2.60
2023-05-14T11:49:43.996Z,3.00
2023-05-14T11:52:11.674Z,2.60
2023-05-14T11:54:38.223Z,3.25
2023-05-14T11:57:15.559Z,2.80
2023-05-14T11:59:42.361Z,3.03
2023-05-14T12:02:12.926Z,3.30
2023-05-14T12:04:40.144Z,2.80
2023-05-14T12:07:14.679Z,2.92
2023-05-14T12:09:45.096Z,2.70
2023-05-14T12:12:12.569Z,2.58
2023-05-14T12:14:43.286Z,3.00
2023-05-14T12:17:11.595Z,3.08
2023-05-14T12:19:39.993Z,2.80
2023-05-14T12:22:07.580Z,3.03
2023-05-14T12:24:34.142Z,3.00
2023-05-14T12:27:01.620Z,2.90
2023-05-14T12:29:28.170Z,2.90
2023-05-14T12:31:57.456Z,2.85
2023-05-14T12:36:09.990Z,2.67
2023-05-14T12:38:46.728Z,3.05
2023-05-14T12:41:13.225Z,3.10
2023-05-14T12:43:40.963Z,3.08
2023-05-14T12:46:07.469Z,2.80
2023-05-14T12:48:33.970Z,3.00
2023-05-14T12:51:00.421Z,2.90
2023-05-14T12:53:26.961Z,3.03
2023-05-14T12:55:54.526Z,3.22
2023-05-14T12:58:21.065Z,3.10
2023-05-14T13:00:47.627Z,2.97
2023-05-14T13:03:14.218Z,3.25
2023-05-14T13:05:40.811Z,2.83
2023-05-14T13:08:07.622Z,3.33
2023-05-14T13:10:34.113Z,3.10
2023-05-14T13:13:02.047Z,2.90
2023-05-14T13:15:28.872Z,3.30
2023-05-14T13:17:55.466Z,3.40
2023-05-14T13:20:23.594Z,3.33
2023-05-14T13:22:50.119Z,2.97
2023-05-14T13:25:16.661Z,3.08
2023-05-14T13:27:43.176Z,2.88
2023-05-14T13:30:09.892Z,3.05
2023-05-14T13:32:36.434Z,3.05
2023-05-14T13:35:02.945Z,2.70
2023-05-14T13:37:29.444Z,2.70
2023-05-14T13:39:55.948Z,3.00
2023-05-14T13:42:23.610Z,3.13
2023-05-14T13:44:50.851Z,2.83
2023-05-14T13:47:17.486Z,3.08
2023-05-14T13:49:44.020Z,3.25
2023-05-14T13:52:10.569Z,2.90
2023-05-14T13:54:37.064Z,3.22
2023-05-14T13:57:03.673Z,3.00
2023-05-14T13:59:30.331Z,3.03
2023-05-14T14:01:57.030Z,2.95
2023-05-14T14:04:25.652Z,3.00
2023-05-14T14:06:52.177Z,2.80
2023-05-14T14:09:18.699Z,2.90
2023-05-14T14:11:45.288Z,3.60
2023-05-14T14:14:11.795Z,2.90
2023-05-14T14:16:38.532Z,2.97
2023-05-14T14:19:05.156Z,3.00
2023-05-14T14:21:31.837Z,2.83
2023-05-14T14:23:58.587Z,2.95
2023-05-14T14:26:25.166Z,3.13
2023-05-14T14:28:57.241Z,2.72
2023-05-14T14:31:23.981Z,3.00
2023-05-14T14:33:50.564Z,3.30
2023-05-14T14:36:17.108Z,2.75
2023-05-14T14:38:43.566Z,3.00
2023-05-14T14:41:12.376Z,3.25
2023-05-14T14:43:41.096Z,3.33
2023-05-14T14:46:10.359Z,2.95
2023-05-14T14:48:41.254Z,3.05
2023-05-14T14:51:08.235Z,3.00
2023-05-14T14:53:35.073Z,3.10
2023-05-14T14:56:02.011Z,3.70
2023-05-14T14:58:28.687Z,3.10
2023-05-14T15:00:56.287Z,3.00
2023-05-14T15:03:23.645Z,2.65
2023-05-14T15:05:51.703Z,3.08
2023-05-14T15:08:18.285Z,3.13
2023-05-14T15:10:45.146Z,2.85
2023-05-14T15:13:15.079Z,3.05
2023-05-14T15:15:41.546Z,2.88
2023-05-14T15:18:08.114Z,2.90
2023-05-14T15:20:34.660Z,2.90
2023-05-14T15:23:01.267Z,2.85
2023-05-14T15:25:27.842Z,2.90
2023-05-14T15:27:54.353Z,3.17
2023-05-14T15:30:20.866Z,2.78
2023-05-14T15:32:47.404Z,3.50
2023-05-14T15:35:14.154Z,2.92
2023-05-14T15:37:41.838Z,2.70
2023-05-14T15:40:09.084Z,2.90
2023-05-14T15:42:39.175Z,3.40
2023-05-14T15:45:05.835Z,3.17
2023-05-14T15:47:32.430Z,2.70
2023-05-14T15:49:59.935Z,3.10
2023-05-14T15:52:26.726Z,2.83
2023-05-14T15:54:54.262Z,3.00
2023-05-14T15:57:20.787Z,3.08
2023-05-14T15:59:47.528Z,3.08
2023-05-14T16:02:14.688Z,2.90
2023-05-14T16:04:41.209Z,3.45
2023-05-14T16:07:09.916Z,3.10
2023-05-14T16:09:36.865Z,3.00
2023-05-14T16:12:03.893Z,2.90
2023-05-14T16:14:32.556Z,3.17
2023-05-14T16:16:59.085Z,3.50
2023-05-14T16:19:26.013Z,3.20
2023-05-14T16:21:52.567Z,2.88
2023-05-14T16:24:19.191Z,3.60
2023-05-14T16:26:45.919Z,3.22
2023-05-14T16:29:12.396Z,3.22
2023-05-14T16:31:38.954Z,3.30
2023-05-14T16:34:05.741Z,3.00
2023-05-14T16:36:32.327Z,3.20
2023-05-14T16:39:07.184Z,3.33
2023-05-14T16:41:35.490Z,3.13
2023-05-14T16:44:02.061Z,3.08
2023-05-14T16:46:29.182Z,3.10
2023-05-14T16:48:56.194Z,3.38
2023-05-14T16:51:22.806Z,2.90
2023-05-14T16:53:49.284Z,3.30
2023-05-14T16:56:15.769Z,3.00
2023-05-14T16:58:42.343Z,2.80
2023-05-14T17:01:09.800Z,3.15
2023-05-14T17:03:39.006Z,3.50
2023-05-14T17:06:05.705Z,3.03
2023-05-14T17:08:33.654Z,3.55
2023-05-14T17:11:00.267Z,4.40
2023-05-14T17:13:26.801Z,3.40
2023-05-14T17:15:53.386Z,4.28
2023-05-14T17:18:22.868Z,3.58
2023-05-14T17:20:49.360Z,3.25
2023-05-14T17:23:16.082Z,3.13
2023-05-14T17:25:42.607Z,3.15
2023-05-14T17:28:09.119Z,2.90
2023-05-14T17:30:35.596Z,2.97
2023-05-14T17:33:02.199Z,2.90
2023-05-14T17:35:28.767Z,3.00
2023-05-14T17:37:55.266Z,3.17
2023-05-14T17:40:21.740Z,2.90
2023-05-14T17:42:49.344Z,3.33
2023-05-14T17:45:20.540Z,3.17
2023-05-14T17:47:47.376Z,3.20
2023-05-14T17:50:13.858Z,3.20
2023-05-14T17:52:45.281Z,3.20
2023-05-14T17:55:11.933Z,3.30
2023-05-14T17:57:38.484Z,3.05
2023-05-14T18:00:05.291Z,3.05
2023-05-14T18:02:37.181Z,3.00
2023-05-14T18:05:03.870Z,3.42
2023-05-14T18:07:30.904Z,2.80
2023-05-14T18:09:57.751Z,3.28
2023-05-14T18:12:27.522Z,3.35
2023-05-14T18:14:54.152Z,3.30
2023-05-14T18:17:20.758Z,3.17
2023-05-14T18:19:49.465Z,3.50
2023-05-14T18:22:16.030Z,3.53
2023-05-14T18:24:44.185Z,3.25
2023-05-14T18:27:11.054Z,3.35
2023-05-14T18:29:37.586Z,3.03
2023-05-14T18:32:04.122Z,2.90
2023-05-14T18:34:32.856Z,3.20
2023-05-14T18:36:59.435Z,3.42
2023-05-14T18:39:25.979Z,2.83
2023-05-14T18:41:52.534Z,3.20
2023-05-14T18:44:19.124Z,3.10
2023-05-14T18:46:46.047Z,3.20
2023-05-14T18:49:12.642Z,3.13
2023-05-14T18:51:39.097Z,3.33
2023-05-14T18:54:05.705Z,3.30
2023-05-14T18:56:32.177Z,3.47
2023-05-14T18:58:58.659Z,3.30
2023-05-14T19:01:25.626Z,3.60
2023-05-14T19:03:52.918Z,3.72
2023-05-14T19:06:19.595Z,3.67
2023-05-14T19:08:46.424Z,5.88
2023-05-14T19:11:12.943Z,9.13
2023-05-14T19:13:39.389Z,8.68
2023-05-14T19:16:05.949Z,5.50
2023-05-14T19:18:32.536Z,4.90
2023-05-14T19:20:59.946Z,4.70
2023-05-14T19:23:26.455Z,4.00
2023-05-14T19:25:52.937Z,3.80
2023-05-14T19:28:19.920Z,4.47
2023-05-14T19:30:46.413Z,3.95
2023-05-14T19:33:12.983Z,4.25
2023-05-14T19:35:39.524Z,4.13
2023-05-14T19:38:06.058Z,4.40
2023-05-14T19:40:32.566Z,4.10
2023-05-14T19:42:59.065Z,4.00
2023-05-14T19:45:25.843Z,4.15
2023-05-14T19:47:52.555Z,4.28
2023-05-14T19:50:19.150Z,4.63
2023-05-14T19:52:45.678Z,4.22
2023-05-14T19:55:12.133Z,4.80
2023-05-14T19:57:39.163Z,6.60
2023-05-14T20:00:08.707Z,5.15
2023-05-14T20:02:37.201Z,5.13
2023-05-14T20:05:06.913Z,4.90
2023-05-14T20:07:33.449Z,5.03
2023-05-14T20:09:59.933Z,5.13
2023-05-14T20:12:27.702Z,5.70
2023-05-14T20:14:54.237Z,5.25
2023-05-14T20:17:23.402Z,5.57
2023-05-14T20:19:49.999Z,5.00
2023-05-14T20:22:19.481Z,5.20
2023-05-14T20:24:45.942Z,5.22
2023-05-14T20:27:12.470Z,4.95
2023-05-14T20:29:38.945Z,5.63
2023-05-14T20:32:05.752Z,5.38
2023-05-14T20:34:32.219Z,4.88
2023-05-14T20:36:58.967Z,5.40
2023-05-14T20:39:25.397Z,5.60
2023-05-14T20:41:51.851Z,5.10
2023-05-14T20:44:20.368Z,5.35
2023-05-14T20:46:47.373Z,5.30
2023-05-14T20:49:13.988Z,5.07
2023-05-14T20:51:40.481Z,5.55
2023-05-14T20:54:07.031Z,5.28
2023-05-14T20:56:33.540Z,5.68
2023-05-14T20:59:00.026Z,6.43
2023-05-14T21:01:29.008Z,5.35
2023-05-14T21:03:55.618Z,5.30
2023-05-14T21:06:22.331Z,5.55
2023-05-14T21:08:48.841Z,5.55
2023-05-14T21:11:15.323Z,5.45
2023-05-14T21:13:42.770Z,5.25
2023-05-14T21:16:09.449Z,5.65
2023-05-14T21:18:36.593Z,5.57
2023-05-14T21:21:03.272Z,5.80
2023-05-14T21:23:29.813Z,6.25
2023-05-14T21:25:56.380Z,6.05
2023-05-14T21:28:22.932Z,5.53
2023-05-14T21:30:50.192Z,5.82
2023-05-14T21:33:16.757Z,6.07
2023-05-14T21:35:43.337Z,6.00
2023-05-14T21:38:09.933Z,5.80
2023-05-14T21:40:36.427Z,6.10
2023-05-14T21:43:03.018Z,6.28
2023-05-14T21:45:29.768Z,6.20
2023-05-14T21:47:56.398Z,6.40
2023-05-14T21:50:22.885Z,6.47
2023-05-14T21:52:49.340Z,6.15
2023-05-14T21:55:16.009Z,6.70
2023-05-14T21:57:42.528Z,6.47
2023-05-14T22:00:12.627Z,6.22
2023-05-14T22:02:41.636Z,6.60
2023-05-14T22:05:08.164Z,6.35
2023-05-14T22:07:34.595Z,6.28
2023-05-14T22:10:01.155Z,6.85
2023-05-14T22:12:27.592Z,6.22
2023-05-14T22:14:54.133Z,6.40
2023-05-14T22:17:20.759Z,6.72
2023-05-14T22:19:47.198Z,6.57
2023-05-14T22:22:13.641Z,6.28
2023-05-14T22:24:40.138Z,6.00
2023-05-14T22:27:09.594Z,6.18
2023-05-14T22:29:38.174Z,6.20
2023-05-14T22:32:07.528Z,6.43
2023-05-14T22:34:34.035Z,6.13
2023-05-14T22:37:00.546Z,6.53
2023-05-14T22:39:27.008Z,6.20
2023-05-14T22:41:55.110Z,6.47
2023-05-14T22:44:22.357Z,6.50
2023-05-14T22:46:49.173Z,6.90
2023-05-14T22:49:15.883Z,6.63
2023-05-14T22:51:42.408Z,6.32
2023-05-14T22:54:10.168Z,6.22
2023-05-14T22:56:37.712Z,6.30
2023-05-14T22:59:04.381Z,6.43
2023-05-14T23:01:31.471Z,6.47
2023-05-14T23:03:57.958Z,6.78
2023-05-14T23:06:24.961Z,6.50
2023-05-14T23:08:51.427Z,6.70
2023-05-14T23:11:18.022Z,7.07
2023-05-14T23:13:44.485Z,6.60
2023-05-14T23:16:10.981Z,6.68
2023-05-14T23:18:37.514Z,6.82
2023-05-14T23:21:04.227Z,6.45
2023-05-14T23:23:30.865Z,6.82
2023-05-14T23:25:59.717Z,6.72
2023-05-14T23:28:26.434Z,6.30
2023-05-14T23:30:52.926Z,6.55
2023-05-14T23:33:19.359Z,6.95
2023-05-14T23:35:45.870Z,6.65
2023-05-14T23:38:12.366Z,6.63
2023-05-14T23:40:38.866Z,6.38
2023-05-14T23:43:05.336Z,6.82
2023-05-14T23:45:31.919Z,7.00
2023-05-14T23:47:58.604Z,6.20
2023-05-14T23:50:25.267Z,6.40
2023-05-14T23:52:52.255Z,6.55
2023-05-14T23:55:19.053Z,6.55
2023-05-14T23:57:47.327Z,6.80
